Time;durP1;ratioP1;P1;durP2;ratioP2;P2;SDS_P1;SDS_P2;PMS_P1;PMS_P2;Temp;Humidity;BMP_temperature;BMP_pressure;BME280_temperature;BME280_humidity;BME280_pressure;Samples;Min_cycle;Max_cycle;Signal;HPM_P1;HPM_P2
2024/03/18 20:43:34;;;;;;;3.45;0.80;;;9.40;99.90;;;;;;5839796;23;20523;-90
2024/03/18 20:46:00;;;;;;;3.40;0.70;;;9.40;99.90;;;;;;4927720;28;20058;-93
2024/03/18 20:48:27;;;;;;;2.90;0.60;;;9.40;99.90;;;;;;4932974;29;20091;-93
2024/03/18 20:50:53;;;;;;;3.25;0.73;;;9.40;99.90;;;;;;4944992;28;20108;-93
2024/03/18 20:53:18;;;;;;;2.85;0.70;;;9.40;99.90;;;;;;4921250;28;20546;-90
2024/03/18 20:55:47;;;;;;;2.60;0.60;;;9.30;99.90;;;;;;4932579;28;20047;-90
2024/03/18 20:58:16;;;;;;;2.47;0.52;;;9.30;99.90;;;;;;4934209;28;20047;-90
2024/03/18 21:00:43;;;;;;;4.10;0.63;;;9.30;99.90;;;;;;4915749;28;20050;-90
2024/03/18 21:03:08;;;;;;;2.88;0.88;;;9.30;99.90;;;;;;4921946;28;20406;-92
2024/03/18 21:05:34;;;;;;;2.03;0.80;;;9.30;99.90;;;;;;4939906;28;20047;-91
2024/03/18 21:08:00;;;;;;;2.63;0.77;;;9.20;99.90;;;;;;4937592;28;20042;-91
2024/03/18 21:10:29;;;;;;;2.67;0.70;;;9.20;99.90;;;;;;4936093;28;20043;-90
2024/03/18 21:12:54;;;;;;;3.60;0.90;;;9.10;99.90;;;;;;4926654;28;20043;-93
2024/03/18 21:15:20;;;;;;;2.35;0.95;;;9.10;99.90;;;;;;4944239;28;20039;-93
2024/03/18 21:17:47;;;;;;;2.40;0.75;;;9.10;99.90;;;;;;4933982;28;20573;-92
2024/03/18 21:20:16;;;;;;;3.58;1.00;;;9.10;99.90;;;;;;4940596;28;20505;-90
2024/03/18 21:22:47;;;;;;;3.17;1.27;;;9.00;99.90;;;;;;4926065;28;20444;-91
2024/03/18 21:25:14;;;;;;;4.90;1.52;;;8.90;99.90;;;;;;4926654;28;20516;-92
2024/03/18 21:27:41;;;;;;;4.18;1.50;;;8.90;99.90;;;;;;4933472;28;20426;-92
2024/03/18 21:30:08;;;;;;;4.68;1.30;;;8.80;99.90;;;;;;4922177;28;20031;-92
2024/03/18 21:32:34;;;;;;;4.35;1.30;;;8.70;99.90;;;;;;4918512;28;20039;-91
2024/03/18 21:35:00;;;;;;;4.15;1.38;;;8.70;99.90;;;;;;4935268;28;20062;-91
2024/03/18 21:37:26;;;;;;;3.80;1.70;;;8.60;99.90;;;;;;4923104;28;20467;-93
2024/03/18 21:39:52;;;;;;;2.67;1.23;;;8.60;99.90;;;;;;4932807;28;20035;-91
2024/03/18 21:42:18;;;;;;;4.20;1.08;;;8.60;99.90;;;;;;4928949;28;20052;-91
2024/03/18 21:44:45;;;;;;;4.47;1.98;;;8.50;99.90;;;;;;4924263;28;20050;-91
2024/03/18 21:47:11;;;;;;;3.58;1.50;;;8.50;99.90;;;;;;4924798;28;20039;-91
2024/03/18 21:49:37;;;;;;;2.83;1.40;;;8.40;99.90;;;;;;4926030;28;20483;-91
2024/03/18 21:52:03;;;;;;;4.55;1.10;;;8.40;99.90;;;;;;4924106;28;20076;-91
2024/03/18 21:54:29;;;;;;;3.58;1.58;;;8.40;99.90;;;;;;4934348;28;20035;-92
2024/03/18 21:56:55;;;;;;;5.05;1.67;;;8.30;99.90;;;;;;4928426;28;20035;-92
2024/03/18 21:59:24;;;;;;;3.97;1.60;;;8.30;99.90;;;;;;4917113;28;20043;-92
2024/03/18 22:01:52;;;;;;;3.03;1.30;;;8.20;99.90;;;;;;4939012;28;20557;-93
2024/03/18 22:04:18;;;;;;;3.72;1.88;;;8.30;99.90;;;;;;4931218;28;20047;-92
2024/03/18 22:06:45;;;;;;;5.18;2.40;;;8.10;99.90;;;;;;4921433;28;20031;-92
2024/03/18 22:09:12;;;;;;;3.75;1.80;;;8.10;99.90;;;;;;4897758;28;20058;-92
2024/03/18 22:11:38;;;;;;;4.22;2.15;;;8.00;99.90;;;;;;4934875;28;20039;-94
2024/03/18 22:14:05;;;;;;;4.22;2.58;;;8.10;99.90;;;;;;4928538;28;20461;-94
2024/03/18 22:16:31;;;;;;;5.50;2.20;;;8.00;99.90;;;;;;4930109;28;20042;-94
2024/03/18 22:18:58;;;;;;;4.32;2.65;;;8.00;99.90;;;;;;4937685;28;20046;-95
2024/03/18 22:21:24;;;;;;;5.38;2.88;;;7.90;99.90;;;;;;4947440;28;20039;-95
2024/03/18 22:23:51;;;;;;;5.78;2.97;;;8.00;99.90;;;;;;4933512;28;20048;-94
2024/03/18 22:26:18;;;;;;;7.43;3.30;;;7.80;99.90;;;;;;4942799;28;20121;-96
2024/03/18 22:28:44;;;;;;;4.88;2.90;;;7.80;99.90;;;;;;4939017;28;20026;-95
2024/03/18 22:31:18;;;;;;;5.57;3.30;;;7.80;99.90;;;;;;4933640;28;20048;-95
2024/03/18 22:33:45;;;;;;;6.47;3.00;;;7.80;99.90;;;;;;4956123;28;20066;-95
2024/03/18 22:36:11;;;;;;;5.30;2.78;;;7.70;99.90;;;;;;4941146;28;20117;-95
2024/03/18 22:38:37;;;;;;;4.32;2.67;;;7.70;99.90;;;;;;4933324;28;20130;-94
2024/03/18 22:41:02;;;;;;;5.88;2.45;;;7.70;99.90;;;;;;4933088;28;20483;-95
2024/03/18 22:43:28;;;;;;;4.53;2.40;;;7.70;99.90;;;;;;4926798;28;20046;-95
2024/03/18 22:45:54;;;;;;;5.53;2.30;;;7.70;99.90;;;;;;4939043;28;20047;-96
2024/03/18 22:48:20;;;;;;;4.15;2.30;;;7.70;99.90;;;;;;4921121;28;20043;-94
2024/03/18 22:50:46;;;;;;;6.00;2.17;;;7.60;99.90;;;;;;4931870;28;20483;-95
2024/03/18 22:53:11;;;;;;;5.25;2.13;;;7.60;99.90;;;;;;4941909;28;20483;-96
2024/03/18 22:55:37;;;;;;;4.75;2.58;;;7.60;99.90;;;;;;4938424;28;20031;-95
2024/03/18 22:58:03;;;;;;;5.28;2.92;;;7.60;99.90;;;;;;4932593;28;20039;-96
2024/03/18 23:00:32;;;;;;;3.88;2.38;;;7.60;99.90;;;;;;4963128;28;20081;-96
2024/03/18 23:02:59;;;;;;;5.32;2.25;;;7.50;99.90;;;;;;4934777;28;20035;-96
2024/03/18 23:05:28;;;;;;;4.75;2.45;;;7.50;99.90;;;;;;4933754;28;20053;-96
2024/03/18 23:07:57;;;;;;;4.75;2.55;;;7.50;99.90;;;;;;4928361;28;20040;-96
2024/03/18 23:10:24;;;;;;;4.20;1.87;;;7.50;99.90;;;;;;4934322;28;20054;-95
2024/03/18 23:12:50;;;;;;;3.80;2.00;;;7.50;99.90;;;;;;4951732;29;20354;-95
2024/03/18 23:15:16;;;;;;;4.22;1.95;;;7.60;99.90;;;;;;4948765;28;20027;-96
2024/03/18 23:17:42;;;;;;;5.65;2.17;;;7.50;99.90;;;;;;4940089;28;20197;-96
2024/03/18 23:20:11;;;;;;;5.20;2.60;;;7.40;99.90;;;;;;4950151;28;20388;-95
2024/03/18 23:22:39;;;;;;;4.35;1.67;;;7.50;99.90;;;;;;4956836;28;20118;-95
2024/03/18 23:25:06;;;;;;;8.13;2.08;;;7.50;99.90;;;;;;4946162;28;20073;-94
2024/03/18 23:27:31;;;;;;;8.18;2.10;;;7.50;99.90;;;;;;4949026;28;20077;-95
2024/03/18 23:30:00;;;;;;;3.95;1.65;;;7.50;99.90;;;;;;4953599;28;20075;-94
2024/03/18 23:32:25;;;;;;;4.10;1.70;;;7.50;99.90;;;;;;4946283;28;20059;-95
2024/03/18 23:34:51;;;;;;;5.35;1.73;;;7.50;99.90;;;;;;4940864;28;20038;-94
2024/03/18 23:37:18;;;;;;;5.72;1.65;;;7.50;99.90;;;;;;4954773;28;20073;-95
2024/03/18 23:39:45;;;;;;;4.78;1.98;;;7.40;99.90;;;;;;4969845;28;20062;-94
2024/03/18 23:42:11;;;;;;;3.88;1.98;;;7.40;99.90;;;;;;4936250;28;20031;-94
2024/03/18 23:44:38;;;;;;;4.97;1.85;;;7.30;99.90;;;;;;4945360;28;20117;-94
2024/03/18 23:47:05;;;;;;;5.63;1.77;;;7.40;99.90;;;;;;4969506;28;20038;-94
2024/03/18 23:49:31;;;;;;;4.30;1.70;;;7.40;99.90;;;;;;4924926;28;20042;-95
2024/03/18 23:51:56;;;;;;;4.55;1.70;;;7.50;99.90;;;;;;4933460;28;20051;-94
2024/03/18 23:54:22;;;;;;;4.80;1.95;;;7.60;99.90;;;;;;4942197;28;20093;-94
2024/03/18 23:56:48;;;;;;;4.25;1.27;;;7.50;99.90;;;;;;4935921;28;20574;-94
2024/03/18 23:59:14;;;;;;;4.32;1.27;;;7.40;99.90;;;;;;4940271;28;20042;-94
